createdAt,value
2019-01-23T00:00:25.875Z,38.73
2019-01-23T00:02:54.457Z,42.57
2019-01-23T00:05:23.020Z,38.33
2019-01-23T00:07:51.616Z,38.13
2019-01-23T00:10:20.176Z,40.80
2019-01-23T00:12:48.772Z,38.60
2019-01-23T00:15:17.345Z,39.43
2019-01-23T00:17:45.944Z,37.03
2019-01-23T00:20:14.587Z,37.80
2019-01-23T00:22:43.175Z,37.20
2019-01-23T00:25:11.747Z,41.47
2019-01-23T00:27:40.347Z,38.97
2019-01-23T00:30:14.027Z,41.20
2019-01-23T00:32:42.614Z,36.37
2019-01-23T00:35:11.469Z,38.67
2019-01-23T00:37:40.065Z,37.27
2019-01-23T00:40:13.728Z,39.57
2019-01-23T00:42:42.383Z,40.97
2019-01-23T00:45:13.202Z,38.93
2019-01-23T00:47:41.791Z,42.70
2019-01-23T00:50:11.598Z,41.07
2019-01-23T00:52:40.191Z,39.13
2019-01-23T00:55:11.973Z,41.13
2019-01-23T00:57:40.567Z,40.33
2019-01-23T01:00:23.628Z,42.67
2019-01-23T01:02:52.767Z,40.97
2019-01-23T01:05:21.779Z,39.33
2019-01-23T01:07:50.612Z,41.30
2019-01-23T01:10:20.623Z,43.80
2019-01-23T01:12:49.497Z,39.27
2019-01-23T01:15:18.200Z,41.60
2019-01-23T01:17:46.923Z,39.20
2019-01-23T01:20:16.334Z,41.77
2019-01-23T01:22:45.004Z,42.47
2019-01-23T01:25:15.916Z,43.77
2019-01-23T01:27:44.581Z,44.23
2019-01-23T01:30:18.419Z,45.93
2019-01-23T01:32:47.150Z,47.80
2019-01-23T01:35:15.792Z,48.60
2019-01-23T01:37:44.522Z,44.30
2019-01-23T01:40:15.532Z,43.97
2019-01-23T01:42:44.124Z,45.40
2019-01-23T01:45:14.638Z,45.07
2019-01-23T01:47:43.227Z,45.33
2019-01-23T01:50:16.732Z,45.63
2019-01-23T01:52:45.317Z,43.90
2019-01-23T01:55:13.970Z,48.87
2019-01-23T01:57:42.547Z,44.33
2019-01-23T02:00:19.280Z,42.27
2019-01-23T02:02:47.878Z,46.73
2019-01-23T02:05:16.979Z,45.60
2019-01-23T02:07:45.639Z,49.23
2019-01-23T02:10:19.184Z,47.20
2019-01-23T02:12:48.412Z,44.67
2019-01-23T02:15:17.724Z,45.97
2019-01-23T02:17:46.396Z,45.90
2019-01-23T02:20:23.445Z,46.60
2019-01-23T02:22:52.104Z,46.53
2019-01-23T02:25:20.844Z,43.60
2019-01-23T02:27:49.900Z,42.83
2019-01-23T02:30:22.885Z,46.90
2019-01-23T02:32:51.478Z,46.93
2019-01-23T02:35:20.128Z,45.57
2019-01-23T02:37:48.717Z,49.43
2019-01-23T02:40:19.329Z,45.00
2019-01-23T02:42:47.924Z,46.97
2019-01-23T02:45:16.755Z,45.27
2019-01-23T02:47:45.511Z,42.23
2019-01-23T02:50:14.922Z,46.03
2019-01-23T02:52:43.522Z,40.43
2019-01-23T02:55:12.326Z,47.90
2019-01-23T02:57:40.909Z,47.83
2019-01-23T03:00:12.328Z,44.23
2019-01-23T03:02:40.924Z,43.47
2019-01-23T03:05:12.644Z,43.00
2019-01-23T03:07:41.243Z,42.93
2019-01-23T03:10:12.665Z,43.67
2019-01-23T03:12:41.244Z,48.23
2019-01-23T03:15:11.955Z,42.63
2019-01-23T03:17:40.692Z,40.40
2019-01-23T03:20:11.719Z,44.63
2019-01-23T03:22:40.383Z,43.13
2019-01-23T03:25:10.893Z,43.83
2019-01-23T03:27:39.540Z,39.67
2019-01-23T03:30:11.191Z,40.90
2019-01-23T03:32:39.783Z,39.63
2019-01-23T03:35:09.686Z,38.40
2019-01-23T03:37:38.282Z,33.10
2019-01-23T03:40:09.933Z,33.63
2019-01-23T03:42:38.521Z,35.03
2019-01-23T03:45:09.730Z,31.97
2019-01-23T03:47:38.317Z,35.20
2019-01-23T03:50:10.332Z,35.83
2019-01-23T03:52:38.919Z,26.87
2019-01-23T03:55:09.432Z,33.50
2019-01-23T03:57:38.029Z,34.93
2019-01-23T04:00:14.776Z,38.40
2019-01-23T04:02:43.747Z,38.23
2019-01-23T04:05:13.051Z,31.93
2019-01-23T04:07:41.635Z,30.70
2019-01-23T04:10:15.003Z,37.27
2019-01-23T04:12:43.655Z,33.53
2019-01-23T04:15:14.675Z,39.23
2019-01-23T04:17:43.401Z,31.90
2019-01-23T04:20:14.612Z,37.77
2019-01-23T04:22:43.644Z,42.57
2019-01-23T04:25:12.662Z,45.97
2019-01-23T04:27:41.248Z,42.90
2019-01-23T04:30:18.648Z,47.67
2019-01-23T04:32:47.233Z,45.47
2019-01-23T04:35:15.808Z,45.47
2019-01-23T04:37:44.476Z,52.93
2019-01-23T04:40:14.675Z,55.57
2019-01-23T04:42:43.339Z,60.67
2019-01-23T04:45:14.518Z,55.07
2019-01-23T04:47:43.114Z,52.37
2019-01-23T04:50:17.359Z,56.43
2019-01-23T04:52:47.592Z,56.40
2019-01-23T04:55:16.176Z,58.73
2019-01-23T04:57:44.741Z,54.53
2019-01-23T05:00:15.829Z,58.73
2019-01-23T05:02:44.443Z,55.73
2019-01-23T05:05:13.283Z,52.37
2019-01-23T05:07:41.855Z,50.50
2019-01-23T05:10:10.583Z,47.47
2019-01-23T05:12:39.161Z,47.37
2019-01-23T05:15:09.401Z,39.50
2019-01-23T05:17:37.959Z,42.30
2019-01-23T05:20:09.626Z,40.87
2019-01-23T05:22:38.202Z,31.83
2019-01-23T05:25:07.435Z,34.73
2019-01-23T05:27:36.386Z,33.20
2019-01-23T05:30:11.081Z,36.20
2019-01-23T05:32:39.645Z,47.33
2019-01-23T05:35:08.373Z,50.17
2019-01-23T05:37:36.943Z,46.03
2019-01-23T05:40:08.165Z,51.03
2019-01-23T05:42:36.720Z,48.03
2019-01-23T05:45:07.958Z,50.73
2019-01-23T05:47:36.528Z,49.13
2019-01-23T05:50:08.195Z,45.90
2019-01-23T05:52:36.764Z,48.73
2019-01-23T05:55:07.795Z,48.33
2019-01-23T05:57:36.378Z,49.10
2019-01-23T06:00:08.112Z,48.83
2019-01-23T06:02:36.680Z,59.00
2019-01-23T06:05:08.086Z,52.57
2019-01-23T06:07:36.657Z,50.00
2019-01-23T06:10:08.387Z,52.70
2019-01-23T06:12:36.960Z,58.30
2019-01-23T06:15:08.868Z,54.70
2019-01-23T06:17:37.435Z,59.97
2019-01-23T06:20:09.227Z,61.83
2019-01-23T06:22:37.795Z,63.57
2019-01-23T06:25:07.052Z,64.30
2019-01-23T06:27:35.596Z,64.20
2019-01-23T06:30:10.475Z,67.23
2019-01-23T06:32:37.482Z,68.93
2019-01-23T06:35:06.709Z,70.57
2019-01-23T06:37:35.277Z,65.47
2019-01-23T06:40:06.807Z,65.70
2019-01-23T06:42:35.380Z,71.13
2019-01-23T06:45:05.008Z,68.30
2019-01-23T06:47:33.579Z,72.10
2019-01-23T06:50:02.169Z,66.43
2019-01-23T06:52:30.742Z,69.33
2019-01-23T06:54:59.328Z,73.10
2019-01-23T06:57:27.895Z,66.70
2019-01-23T06:59:56.491Z,76.53
2019-01-23T07:02:25.064Z,79.27
2019-01-23T07:04:53.659Z,68.80
2019-01-23T07:07:22.233Z,73.30
2019-01-23T07:09:50.827Z,67.57
2019-01-23T07:12:19.391Z,64.17
2019-01-23T07:14:47.986Z,73.37
2019-01-23T07:17:16.554Z,75.93
2019-01-23T07:19:45.148Z,74.03
2019-01-23T07:22:13.715Z,77.03
2019-01-23T07:24:42.312Z,66.67
2019-01-23T07:27:10.871Z,75.17
2019-01-23T07:29:39.535Z,74.00
2019-01-23T07:32:08.102Z,73.73
2019-01-23T07:34:36.695Z,75.57
2019-01-23T07:37:05.345Z,79.40
2019-01-23T07:39:33.931Z,77.17
2019-01-23T07:42:02.500Z,82.57
2019-01-23T07:44:31.100Z,84.47
2019-01-23T07:46:59.739Z,80.23
2019-01-23T07:49:28.333Z,85.47
2019-01-23T07:51:56.899Z,82.30
2019-01-23T07:54:25.495Z,81.23
2019-01-23T07:56:54.067Z,91.53
2019-01-23T07:59:22.662Z,93.23
2019-01-23T08:01:51.227Z,93.93
2019-01-23T08:04:19.822Z,90.53
2019-01-23T08:06:48.387Z,89.60
2019-01-23T08:09:16.962Z,99.43
2019-01-23T08:11:45.556Z,101.43
2019-01-23T08:14:14.143Z,92.43
2019-01-23T08:16:42.731Z,86.97
2019-01-23T08:19:11.305Z,98.30
2019-01-23T08:21:39.963Z,94.93
2019-01-23T08:24:08.536Z,87.37
2019-01-23T08:26:37.127Z,93.90
2019-01-23T08:29:05.695Z,87.50
2019-01-23T08:31:34.287Z,92.67
2019-01-23T08:34:02.927Z,93.43
2019-01-23T08:36:31.529Z,90.97
2019-01-23T08:39:00.088Z,98.30
2019-01-23T08:41:28.679Z,98.73
2019-01-23T08:43:57.248Z,93.07
2019-01-23T08:46:25.907Z,91.43
2019-01-23T08:48:54.547Z,99.63
2019-01-23T08:51:23.141Z,91.37
2019-01-23T08:53:51.714Z,85.27
2019-01-23T08:56:20.368Z,94.67
2019-01-23T08:58:48.945Z,101.13
2019-01-23T09:01:17.531Z,90.03
2019-01-23T09:03:46.101Z,92.60
2019-01-23T09:06:14.695Z,88.80
2019-01-23T09:08:43.267Z,92.47
2019-01-23T09:11:11.872Z,98.57
2019-01-23T09:13:40.451Z,89.77
2019-01-23T09:16:09.039Z,93.83
2019-01-23T09:18:37.612Z,98.23
2019-01-23T09:21:06.203Z,92.93
2019-01-23T09:23:34.775Z,95.13
2019-01-23T09:26:03.367Z,92.03
2019-01-23T09:28:32.003Z,90.03
2019-01-23T09:31:06.519Z,91.53
2019-01-23T09:33:38.168Z,94.33
2019-01-23T09:36:12.751Z,84.40
2019-01-23T09:39:08.445Z,89.80
2019-01-23T09:41:56.623Z,81.70
2019-01-23T09:44:40.784Z,78.07
2019-01-23T09:47:31.753Z,75.93
2019-01-23T09:50:12.151Z,69.63
2019-01-23T09:53:00.259Z,78.67
2019-01-23T09:55:28.856Z,67.00
2019-01-23T09:57:57.427Z,57.63
2019-01-23T10:00:31.778Z,79.17
2019-01-23T10:02:59.919Z,86.67
2019-01-23T10:05:28.512Z,82.23
2019-01-23T10:07:57.152Z,81.83
2019-01-23T10:10:25.743Z,67.00
2019-01-23T10:12:54.319Z,64.07
2019-01-23T10:15:28.919Z,90.93
2019-01-23T10:17:57.486Z,72.00
2019-01-23T10:20:26.080Z,79.97
2019-01-23T10:22:54.655Z,85.10
2019-01-23T10:25:23.243Z,82.23
2019-01-23T10:27:51.815Z,70.93
2019-01-23T10:30:20.456Z,75.30
2019-01-23T10:32:49.052Z,81.73
2019-01-23T10:35:18.796Z,79.50
2019-01-23T10:37:47.388Z,70.30
2019-01-23T10:40:17.617Z,77.70
2019-01-23T10:42:46.332Z,83.07
2019-01-23T10:45:15.455Z,69.70
2019-01-23T10:47:44.593Z,80.53
2019-01-23T10:50:17.668Z,82.27
2019-01-23T10:52:46.259Z,77.63
2019-01-23T10:55:14.971Z,71.87
2019-01-23T10:57:43.636Z,62.33
2019-01-23T11:00:17.862Z,80.00
2019-01-23T11:02:46.531Z,81.80
2019-01-23T11:05:18.340Z,76.73
2019-01-23T11:07:46.927Z,82.40
2019-01-23T11:10:21.040Z,69.13
2019-01-23T11:12:49.631Z,68.27
2019-01-23T11:15:18.346Z,69.73
2019-01-23T11:17:47.074Z,67.90
2019-01-23T11:20:20.204Z,55.80
2019-01-23T11:22:48.798Z,68.27
2019-01-23T11:25:17.536Z,65.53
2019-01-23T11:27:46.563Z,75.63
2019-01-23T11:30:26.619Z,69.07
2019-01-23T11:32:55.212Z,56.10
2019-01-23T11:35:24.314Z,56.33
2019-01-23T11:37:53.079Z,54.40
2019-01-23T11:40:30.414Z,68.00
2019-01-23T11:42:59.021Z,66.83
2019-01-23T11:45:28.151Z,81.90
2019-01-23T11:47:56.812Z,75.47
2019-01-23T11:50:25.380Z,74.33
2019-01-23T11:52:54.039Z,64.93
2019-01-23T11:55:22.611Z,70.00
2019-01-23T11:57:51.203Z,71.13
2019-01-23T12:00:25.703Z,68.80
2019-01-23T12:02:54.432Z,70.63
2019-01-23T12:05:23.731Z,70.10
2019-01-23T12:07:52.468Z,76.13
2019-01-23T12:10:25.091Z,64.43
2019-01-23T12:12:53.821Z,60.83
2019-01-23T12:15:24.219Z,61.47
2019-01-23T12:17:52.951Z,51.37
2019-01-23T12:20:21.755Z,69.30
2019-01-23T12:22:50.342Z,70.50
2019-01-23T12:25:19.080Z,48.73
2019-01-23T12:27:47.817Z,74.50
2019-01-23T12:30:22.379Z,58.00
2019-01-23T12:32:51.231Z,73.80
2019-01-23T12:35:19.805Z,64.73
2019-01-23T12:37:48.463Z,80.47
2019-01-23T12:40:17.775Z,76.37
2019-01-23T12:42:46.373Z,67.63
2019-01-23T12:45:17.979Z,72.43
2019-01-23T12:47:46.647Z,69.90
2019-01-23T12:50:18.124Z,64.27
2019-01-23T12:52:46.715Z,57.57
2019-01-23T12:55:15.355Z,61.70
2019-01-23T12:57:43.947Z,62.57
2019-01-23T13:00:22.398Z,63.20
2019-01-23T13:02:51.055Z,67.00
2019-01-23T13:05:21.377Z,62.23
2019-01-23T13:07:50.111Z,71.27
2019-01-23T13:10:21.281Z,69.50
2019-01-23T13:12:50.248Z,66.63
2019-01-23T13:15:20.756Z,58.40
2019-01-23T13:17:49.352Z,64.43
2019-01-23T13:20:20.531Z,69.87
2019-01-23T13:22:49.123Z,70.57
2019-01-23T13:25:19.831Z,56.83
2019-01-23T13:27:48.696Z,64.77
2019-01-23T13:30:19.503Z,62.60
2019-01-23T13:32:48.673Z,49.80
2019-01-23T13:35:28.813Z,50.97
2019-01-23T13:37:57.404Z,69.53
2019-01-23T13:40:31.954Z,76.93
2019-01-23T13:43:00.883Z,68.90
2019-01-23T13:45:29.451Z,68.00
2019-01-23T13:47:58.047Z,59.00
2019-01-23T13:50:26.791Z,69.40
2019-01-23T13:52:55.387Z,71.37
2019-01-23T13:55:24.600Z,62.30
2019-01-23T13:57:53.256Z,74.83
2019-01-23T14:00:30.356Z,76.03
2019-01-23T14:02:59.019Z,73.70
2019-01-23T14:05:27.764Z,86.80
2019-01-23T14:07:56.355Z,91.03
2019-01-23T14:10:24.995Z,97.80
2019-01-23T14:12:53.588Z,82.20
2019-01-23T14:15:39.482Z,104.07
2019-01-23T14:18:08.410Z,88.27
2019-01-23T14:20:37.252Z,78.27
2019-01-23T14:23:05.929Z,95.37
2019-01-23T14:25:34.565Z,87.57
2019-01-23T14:28:03.227Z,94.23
2019-01-23T14:30:36.923Z,90.17
2019-01-23T14:33:05.767Z,99.67
2019-01-23T14:35:35.479Z,108.80
2019-01-23T14:38:04.813Z,88.80
2019-01-23T14:40:33.448Z,94.57
2019-01-23T14:43:02.039Z,99.87
2019-01-23T14:45:30.619Z,102.07
2019-01-23T14:47:59.213Z,93.50
2019-01-23T14:50:27.780Z,98.03
2019-01-23T14:52:56.375Z,77.40
2019-01-23T14:55:24.942Z,91.03
2019-01-23T14:57:53.535Z,89.27
2019-01-23T15:00:32.979Z,85.07
2019-01-23T15:03:01.572Z,77.87
2019-01-23T15:05:30.140Z,81.60
2019-01-23T15:07:58.724Z,86.30
2019-01-23T15:10:30.102Z,81.30
2019-01-23T15:12:59.287Z,110.27
2019-01-23T15:15:27.893Z,112.17
2019-01-23T15:17:56.627Z,94.80
2019-01-23T15:20:30.683Z,94.90
2019-01-23T15:22:59.280Z,119.73
2019-01-23T15:25:27.920Z,112.37
2019-01-23T15:27:56.519Z,106.83
2019-01-23T15:30:25.327Z,107.93
2019-01-23T15:32:53.924Z,77.00
2019-01-23T15:35:22.635Z,106.17
2019-01-23T15:37:51.308Z,92.70
2019-01-23T15:40:25.087Z,96.47
2019-01-23T15:42:53.683Z,94.17
2019-01-23T15:45:22.399Z,114.43
2019-01-23T15:47:51.039Z,94.77
2019-01-23T15:50:22.535Z,84.47
2019-01-23T15:52:51.112Z,82.87
2019-01-23T15:55:22.046Z,95.90
2019-01-23T15:57:50.692Z,103.30
2019-01-23T16:00:21.528Z,124.00
2019-01-23T16:02:50.104Z,84.50
2019-01-23T16:05:18.692Z,132.80
2019-01-23T16:07:47.259Z,119.33
2019-01-23T16:10:20.370Z,95.10
2019-01-23T16:12:49.040Z,126.50
2019-01-23T16:15:20.376Z,110.73
2019-01-23T16:17:49.018Z,127.47
2019-01-23T16:20:17.761Z,133.23
2019-01-23T16:22:46.603Z,120.90
2019-01-23T16:25:17.132Z,127.47
2019-01-23T16:27:46.255Z,132.80
2019-01-23T16:30:20.530Z,118.33
2019-01-23T16:32:49.095Z,126.00
2019-01-23T16:35:17.687Z,130.27
2019-01-23T16:37:46.330Z,139.30
2019-01-23T16:40:14.998Z,148.67
2019-01-23T16:42:43.640Z,137.20
2019-01-23T16:45:17.667Z,146.00
2019-01-23T16:47:46.240Z,142.80
2019-01-23T16:50:26.068Z,141.77
2019-01-23T16:52:54.644Z,135.23
2019-01-23T16:55:23.675Z,135.60
2019-01-23T16:57:52.523Z,124.67
2019-01-23T17:00:27.900Z,116.20
2019-01-23T17:02:57.247Z,138.53
2019-01-23T17:05:30.852Z,137.57
2019-01-23T17:08:01.267Z,136.03
2019-01-23T17:10:29.929Z,144.57
2019-01-23T17:12:58.768Z,143.13
2019-01-23T17:15:27.428Z,147.13
2019-01-23T17:17:56.060Z,143.40
2019-01-23T17:20:33.443Z,123.80
2019-01-23T17:23:02.020Z,134.97
2019-01-23T17:25:30.684Z,111.03
2019-01-23T17:27:59.259Z,130.97
2019-01-23T17:30:27.932Z,133.07
2019-01-23T17:32:56.499Z,140.33
2019-01-23T17:35:25.159Z,132.43
2019-01-23T17:37:53.731Z,131.93
2019-01-23T17:40:23.982Z,138.93
2019-01-23T17:42:52.608Z,142.67
2019-01-23T17:45:26.923Z,145.37
2019-01-23T17:47:55.559Z,139.03
2019-01-23T17:50:25.095Z,129.97
2019-01-23T17:52:53.745Z,139.00
2019-01-23T17:55:34.348Z,132.90
2019-01-23T17:58:02.995Z,128.50
2019-01-23T18:00:34.065Z,122.77
2019-01-23T18:03:02.639Z,128.33
2019-01-23T18:05:31.236Z,117.57
2019-01-23T18:07:59.806Z,128.20
2019-01-23T18:10:28.408Z,126.63
2019-01-23T18:12:57.117Z,123.80
2019-01-23T18:15:28.824Z,107.27
2019-01-23T18:17:57.398Z,126.87
2019-01-23T18:20:28.031Z,107.37
2019-01-23T18:22:57.373Z,127.07
2019-01-23T18:25:26.038Z,122.53
2019-01-23T18:27:54.682Z,120.40
2019-01-23T18:30:38.158Z,113.57
2019-01-23T18:33:10.019Z,113.27
2019-01-23T18:36:13.789Z,119.77
2019-01-23T18:38:45.446Z,114.63
2019-01-23T18:41:17.114Z,106.90
2019-01-23T18:44:05.488Z,115.20
2019-01-23T18:46:56.556Z,103.37
2019-01-23T18:49:31.155Z,114.50
2019-01-23T18:52:14.048Z,96.23
2019-01-23T18:54:43.879Z,99.73
2019-01-23T18:57:18.433Z,88.83
2019-01-23T18:59:47.093Z,86.90
2019-01-23T19:02:15.796Z,95.97
2019-01-23T19:04:44.388Z,92.50
2019-01-23T19:07:12.956Z,92.40
2019-01-23T19:09:41.548Z,96.73
2019-01-23T19:12:10.189Z,88.03
2019-01-23T19:14:38.776Z,78.20
2019-01-23T19:17:07.616Z,86.33
2019-01-23T19:19:36.280Z,82.63
2019-01-23T19:22:05.487Z,74.30
2019-01-23T19:24:34.082Z,69.40
2019-01-23T19:27:02.653Z,66.30
2019-01-23T19:29:31.224Z,66.43
2019-01-23T19:31:59.821Z,77.30
2019-01-23T19:34:28.392Z,63.67
2019-01-23T19:36:56.984Z,65.37
2019-01-23T19:39:25.551Z,58.93
2019-01-23T19:41:54.140Z,60.97
2019-01-23T19:44:22.707Z,60.80
2019-01-23T19:46:51.299Z,58.20
2019-01-23T19:49:19.938Z,58.87
2019-01-23T19:51:49.061Z,57.23
2019-01-23T19:54:17.615Z,53.13
2019-01-23T19:56:46.209Z,51.80
2019-01-23T19:59:14.807Z,48.80
2019-01-23T20:01:43.400Z,55.27
2019-01-23T20:04:11.979Z,49.50
2019-01-23T20:06:40.571Z,51.90
2019-01-23T20:09:10.967Z,49.00
2019-01-23T20:11:40.056Z,54.63
2019-01-23T20:14:08.823Z,47.47
2019-01-23T20:16:37.437Z,53.00
2019-01-23T20:19:07.749Z,46.37
2019-01-23T20:21:36.339Z,54.67
2019-01-23T20:24:05.870Z,48.47
2019-01-23T20:26:34.467Z,50.77
2019-01-23T20:29:03.032Z,50.57
2019-01-23T20:31:31.624Z,50.57
2019-01-23T20:34:00.191Z,50.17
2019-01-23T20:36:28.927Z,52.37
2019-01-23T20:38:57.626Z,52.03
2019-01-23T20:41:26.167Z,52.90
2019-01-23T20:43:54.734Z,50.43
2019-01-23T20:46:23.324Z,53.33
2019-01-23T20:48:51.900Z,54.40
2019-01-23T20:51:20.629Z,56.17
2019-01-23T20:53:49.456Z,56.63
2019-01-23T20:56:18.386Z,56.53
2019-01-23T20:58:47.025Z,54.20
2019-01-23T21:01:15.615Z,51.33
2019-01-23T21:03:44.172Z,51.67
2019-01-23T21:06:12.759Z,54.53
2019-01-23T21:08:41.324Z,48.70
2019-01-23T21:11:09.989Z,49.13
2019-01-23T21:13:38.555Z,51.20
2019-01-23T21:16:07.148Z,48.63
2019-01-23T21:18:35.857Z,50.10
2019-01-23T21:21:05.008Z,54.73
2019-01-23T21:23:34.179Z,52.93
2019-01-23T21:26:02.849Z,49.50
2019-01-23T21:28:31.410Z,52.03
2019-01-23T21:31:00.011Z,50.30
2019-01-23T21:33:28.589Z,47.10
2019-01-23T21:35:57.188Z,39.90
2019-01-23T21:38:25.760Z,48.83
2019-01-23T21:40:54.356Z,43.63
2019-01-23T21:43:22.990Z,33.27
2019-01-23T21:45:51.700Z,37.33
2019-01-23T21:48:20.410Z,41.27
2019-01-23T21:50:49.353Z,30.07
2019-01-23T21:53:17.931Z,38.07
2019-01-23T21:55:46.524Z,28.93
2019-01-23T21:58:15.095Z,37.73
2019-01-23T22:00:44.047Z,43.07
2019-01-23T22:03:12.811Z,31.90
2019-01-23T22:05:41.513Z,31.27
2019-01-23T22:08:10.544Z,30.67
2019-01-23T22:10:39.112Z,29.00
2019-01-23T22:13:07.792Z,29.33
2019-01-23T22:15:36.487Z,37.73
2019-01-23T22:18:06.063Z,29.13
2019-01-23T22:20:34.893Z,27.50
2019-01-23T22:23:03.564Z,26.67
2019-01-23T22:25:32.152Z,22.27
2019-01-23T22:28:00.804Z,38.27
2019-01-23T22:30:31.774Z,30.63
2019-01-23T22:33:00.624Z,34.23
2019-01-23T22:35:29.190Z,29.50
2019-01-23T22:37:57.851Z,38.87
2019-01-23T22:40:26.487Z,28.73
2019-01-23T22:42:55.075Z,38.70
2019-01-23T22:45:23.652Z,23.97
2019-01-23T22:47:52.252Z,25.33
2019-01-23T22:50:25.823Z,31.13
2019-01-23T22:52:54.488Z,30.63
2019-01-23T22:55:23.132Z,33.07
2019-01-23T22:57:51.724Z,25.67
2019-01-23T23:00:26.188Z,28.60
2019-01-23T23:02:54.781Z,31.93
2019-01-23T23:05:23.347Z,34.30
2019-01-23T23:07:51.939Z,33.27
2019-01-23T23:10:21.451Z,26.70
2019-01-23T23:12:50.179Z,26.73
2019-01-23T23:15:18.900Z,29.37
2019-01-23T23:17:47.491Z,37.20
2019-01-23T23:20:16.063Z,34.57
2019-01-23T23:22:44.651Z,33.87
2019-01-23T23:25:13.559Z,31.20
2019-01-23T23:27:42.156Z,30.03
2019-01-23T23:30:16.423Z,29.50
2019-01-23T23:32:45.010Z,29.70
2019-01-23T23:35:13.719Z,30.77
2019-01-23T23:37:42.311Z,24.60
2019-01-23T23:40:15.526Z,36.70
2019-01-23T23:42:45.562Z,29.33
2019-01-23T23:45:17.211Z,30.77
2019-01-23T23:47:45.803Z,27.13
2019-01-23T23:50:15.907Z,34.80
2019-01-23T23:52:44.530Z,27.97
2019-01-23T23:55:16.540Z,31.93
2019-01-23T23:57:45.503Z,32.40
